Storm Events Database

Event Details

Event Hail
Magnitude 0.88 in.
State MISSISSIPPI
County/Area TUNICA
WFO MEG
Report Source Emergency Manager
NCDC Data Source CSV
Begin Date 2008-05-10 18:45:00.0 CST-6
Begin Location 0N ROBINSONSVILLE
Begin Lat/Lon 34.82/-90.32
End Date 2008-05-10 18:50:00.0 CST-6
Deaths Direct/Indirect 0/0 (fatality details below, when available...)
Injuries Direct/Indirect 0/0
Property Damage 1.50K
Crop Damage 0.00K
Episode Narrative A stationary front moved north as a warm front during the day of May 10, 2008 as a strong upper level trough moved into the Midsouth. Behind the warm front, the atmosphere became very unstable which allowed numerous showers and thunderstorms to develop. Some of the thunderstorms quickly became severe and produced large hail, damaging winds, a few tornadoes and flash flooding into the early morning hours of May 11th.
Event Narrative


     ‚Äč



All events for this episode:

Location County/Zone St. Date Time T.Z. Type Mag Dth Inj PrD CrD
Totals: 0 4 610.00K 0.00K
ROBINSONSVILLE TUNICA CO. MS 05/10/2008 18:45 CST-6 Hail 0.88 in. 0 0 1.50K 0.00K
STRAYHORN TATE CO. MS 05/10/2008 19:20 CST-6 Thunderstorm Wind 50 kts. EG 0 0 2.00K 0.00K
WALLS DE SOTO CO. MS 05/10/2008 19:43 CST-6 Thunderstorm Wind 61 kts. EG 0 0 0.00K 0.00K
HORN LAKE DESOTO ARP DE SOTO CO. MS 05/10/2008 19:45 CST-6 Flash Flood 0 0 0.00K 0.00K
WALLS TWINKLE TOWN F DE SOTO CO. MS 05/10/2008 19:47 CST-6 Hail 0.75 in. 0 0 1.00K 0.00K
OLIVE BRANCH DE SOTO CO. MS 05/10/2008 19:52 CST-6 Thunderstorm Wind 50 kts. EG 0 0 10.00K 0.00K
COAHOMA COAHOMA CO. MS 05/10/2008 20:00 CST-6 Thunderstorm Wind 96 kts. EG 0 0 50.00K 0.00K
BARTON MARSHALL CO. MS 05/10/2008 20:03 CST-6 Thunderstorm Wind 52 kts. EG 0 0 0.00K 0.00K
BYHALIA MARSHALL CO. MS 05/10/2008 20:03 CST-6 Hail 0.88 in. 0 0 1.50K 0.00K
HANDY CORNER DE SOTO CO. MS 05/10/2008 20:03 CST-6 Thunderstorm Wind 63 kts. MG 0 0 0.00K 0.00K
HANDY CORNER DE SOTO CO. MS 05/10/2008 20:03 CST-6 Hail 0.88 in. 0 0 1.50K 0.00K
FARRELL COAHOMA CO. MS 05/10/2008 20:07 CST-6 Hail 0.75 in. 0 0 1.00K 0.00K
LYON COAHOMA CO. MS 05/10/2008 20:22 CST-6 Thunderstorm Wind 52 kts. EG 0 0 0.00K 0.00K
LYON COAHOMA CO. MS 05/10/2008 20:22 CST-6 Hail 0.75 in. 0 0 1.00K 0.00K
LULA COAHOMA CO. MS 05/10/2008 20:23 CST-6 Thunderstorm Wind 52 kts. EG 0 0 0.00K 0.00K
LULA COAHOMA CO. MS 05/10/2008 20:23 CST-6 Hail 0.75 in. 0 0 1.00K 0.00K
BARTON MARSHALL CO. MS 05/10/2008 20:30 CST-6 Hail 0.75 in. 0 0 1.00K 0.00K
LAWS HILL MARSHALL CO. MS 05/10/2008 20:30 CST-6 Thunderstorm Wind 50 kts. EG 0 2 50.00K 0.00K
BURGESS QUITMAN CO. MS 05/10/2008 20:33 CST-6 Tornado EF1 0 0 25.00K 0.00K
ASHLAND BENTON CO. MS 05/10/2008 20:45 CST-6 Hail 1.00 in. 0 0 2.00K 0.00K
CURTIS STATION PANOLA CO. MS 05/10/2008 20:45 CST-6 Thunderstorm Wind 50 kts. EG 0 0 40.00K 0.00K
HICKORY FLAT BENTON CO. MS 05/10/2008 20:45 CST-6 Thunderstorm Wind 50 kts. EG 0 0 100.00K 0.00K
BAUGH COAHOMA CO. MS 05/10/2008 21:00 CST-6 Thunderstorm Wind 50 kts. EG 0 0 5.00K 0.00K
WATSON MARSHALL CO. MS 05/10/2008 21:00 CST-6 Flash Flood 0 0 0.00K 0.00K
BATESVILLE PANOLA CO. MS 05/10/2008 21:05 CST-6 Hail 0.75 in. 0 0 1.00K 0.00K
CHAPELTOWN PANOLA CO. MS 05/10/2008 21:05 CST-6 Thunderstorm Wind 50 kts. EG 0 0 2.00K 0.00K
FALKNER TIPPAH CO. MS 05/10/2008 21:05 CST-6 Thunderstorm Wind 65 kts. EG 0 0 0.00K 0.00K
ENID TALLAHATCHIE CO. MS 05/10/2008 21:15 CST-6 Tornado EF1 0 2 175.00K 0.00K
JUMPERTOWN PRENTISS CO. MS 05/10/2008 21:16 CST-6 Thunderstorm Wind 56 kts. EG 0 0 2.00K 0.00K
BIGGERSVILLE ALCORN CO. MS 05/10/2008 21:25 CST-6 Thunderstorm Wind 50 kts. EG 0 0 12.00K 0.00K
OAKLAND YALOBUSHA CO. MS 05/10/2008 21:26 CST-6 Tornado EF0 0 0 10.00K 0.00K
TUPELO LEE CO. MS 05/10/2008 21:28 CST-6 Hail 0.75 in. 0 0 1.00K 0.00K
CLARKSDALE COAHOMA CO. MS 05/10/2008 21:30 CST-6 Flash Flood 0 0 0.00K 0.00K
CHARLESTON TALLAHATCHIE CO. MS 05/10/2008 21:31 CST-6 Thunderstorm Wind 50 kts. EG 0 0 2.00K 0.00K
MARKS QUITMAN CO. MS 05/10/2008 21:32 CST-6 Hail 0.88 in. 0 0 1.50K 0.00K
OAKLAND YALOBUSHA CO. MS 05/10/2008 21:34 CST-6 Hail 0.75 in. 0 0 1.00K 0.00K
SALTILLO LEE CO. MS 05/10/2008 21:35 CST-6 Thunderstorm Wind 50 kts. EG 0 0 2.00K 0.00K
EVERGREEN ITAWAMBA CO. MS 05/10/2008 21:40 CST-6 Thunderstorm Wind 50 kts. EG 0 0 30.00K 0.00K
SALTILLO LEE CO. MS 05/10/2008 21:40 CST-6 Hail 0.88 in. 0 0 1.50K 0.00K
LUKE TISHOMINGO CO. MS 05/10/2008 21:45 CST-6 Thunderstorm Wind 50 kts. EG 0 0 5.00K 0.00K
EVERGREEN ITAWAMBA CO. MS 05/10/2008 21:50 CST-6 Hail 0.75 in. 0 0 1.00K 0.00K
BRUCE JCT YALOBUSHA CO. MS 05/10/2008 22:00 CST-6 Thunderstorm Wind 52 kts. EG 0 0 0.00K 0.00K
MOOREVILLE LEE CO. MS 05/10/2008 22:05 CST-6 Hail 0.88 in. 0 0 1.50K 0.00K
TREMONT ITAWAMBA CO. MS 05/10/2008 22:15 CST-6 Hail 0.75 in. 0 0 1.00K 0.00K
TEASDALE TALLAHATCHIE CO. MS 05/10/2008 22:19 CST-6 Thunderstorm Wind 50 kts. EG 0 0 2.00K 0.00K
BUCKHORN PONTOTOC CO. MS 05/10/2008 22:21 CST-6 Thunderstorm Wind 50 kts. EG 0 0 30.00K 0.00K
LONGTOWN PANOLA CO. MS 05/10/2008 22:30 CST-6 Flash Flood 0 0 0.00K 0.00K
BRUCE CALHOUN CO ARP CALHOUN CO. MS 05/10/2008 22:31 CST-6 Thunderstorm Wind 50 kts. EG 0 0 4.00K 0.00K
OAKLAND YALOBUSHA CO. MS 05/10/2008 22:52 CST-6 Thunderstorm Wind 50 kts. EG 0 0 4.00K 0.00K
OAKLAND YALOBUSHA CO. MS 05/10/2008 22:52 CST-6 Hail 1.00 in. 0 0 2.00K 0.00K
COFFEEVILLE YALOBUSHA CO. MS 05/10/2008 23:01 CST-6 Thunderstorm Wind 50 kts. EG 0 0 2.00K 0.00K
HOUSTON CHICKASAW CO. MS 05/10/2008 23:05 CST-6 Thunderstorm Wind 52 kts. EG 0 0 0.00K 0.00K
VARDAMAN CALHOUN CO. MS 05/10/2008 23:26 CST-6 Thunderstorm Wind 50 kts. EG 0 0 10.00K 0.00K
CALHOUN CITY CALHOUN CO. MS 05/10/2008 23:30 CST-6 Hail 0.75 in. 0 0 1.00K 0.00K
HOUSTON CHICKASAW CO. MS 05/10/2008 23:30 CST-6 Thunderstorm Wind 40 kts. EG 0 0 10.00K 0.00K
AMORY MONROE CO. MS 05/10/2008 23:31 CST-6 Thunderstorm Wind 50 kts. EG 0 0 2.00K 0.00K
Totals: 0 4 610.00K 0.00K